In Rescue
 
Open Full Screen Window  High Contrast Mode
Wind Gusting 00 knots
09
June 22, 2024 10:35 PM EDT
Present Weather: Rain and Mist
Weather Information
Wind Direction
  220 °
Wind Speed
  09 kt (10 mph)
Wind Gust
  00 kt (0 mph)
Altimeter
29.71 in
Visibility
6 SM
Temperature
21° C
70° F
Dewpoint
20° C
68° F
Humidity
94%
Sky Condition
Overcast @ 1,100 ft
Broken @ 700 ft
IFR

METAR KCAD 230235Z AUTO 22009KT 6SM RA BR BKN007 OVC011 21/20 A2971 RMK AO2

FAA Disclaimer: The data displayed is for advisory purposes only and is not to be used for flight planning or operations.